createdAt,value
2023-08-08T00:02:04.602Z,2.20
2023-08-08T00:04:31.970Z,1.70
2023-08-08T00:06:59.356Z,1.50
2023-08-08T00:09:26.707Z,1.90
2023-08-08T00:11:54.061Z,1.40
2023-08-08T00:14:21.563Z,1.60
2023-08-08T00:16:48.945Z,1.80
2023-08-08T00:19:16.336Z,1.90
2023-08-08T00:21:43.628Z,1.90
2023-08-08T00:24:10.800Z,1.77
2023-08-08T00:26:38.039Z,2.40
2023-08-08T00:29:05.501Z,1.20
2023-08-08T00:31:33.175Z,1.95
2023-08-08T00:34:00.499Z,2.13
2023-08-08T00:36:27.906Z,2.05
2023-08-08T00:38:55.096Z,2.22
2023-08-08T00:41:23.096Z,1.92
2023-08-08T00:43:51.425Z,1.92
2023-08-08T00:46:22.866Z,2.50
2023-08-08T00:51:18.504Z,2.20
2023-08-08T00:53:46.594Z,2.05
2023-08-08T00:56:15.254Z,2.03
2023-08-08T00:58:42.650Z,2.58
2023-08-08T01:01:10.414Z,2.40
2023-08-08T01:03:37.735Z,2.45
2023-08-08T01:06:15.484Z,2.15
2023-08-08T01:08:53.147Z,2.28
2023-08-08T01:11:20.779Z,2.28
2023-08-08T01:13:48.300Z,2.33
2023-08-08T01:16:15.794Z,2.03
2023-08-08T01:18:43.989Z,1.98
2023-08-08T01:21:11.936Z,2.05
2023-08-08T01:23:39.146Z,1.88
2023-08-08T01:26:08.278Z,2.35
2023-08-08T01:28:35.965Z,1.92
2023-08-08T01:31:03.544Z,2.15
2023-08-08T01:33:31.091Z,2.05
2023-08-08T01:36:02.543Z,2.80
2023-08-08T01:38:34.071Z,2.72
2023-08-08T01:41:01.689Z,2.13
2023-08-08T01:43:29.106Z,2.40
2023-08-08T01:45:57.039Z,2.22
2023-08-08T01:48:24.343Z,1.48
2023-08-08T01:50:51.687Z,1.98
2023-08-08T01:53:19.012Z,2.30
2023-08-08T01:55:46.294Z,2.05
2023-08-08T01:58:13.640Z,1.95
2023-08-08T02:00:42.223Z,2.33
2023-08-08T02:03:10.103Z,2.33
2023-08-08T02:05:37.501Z,2.60
2023-08-08T02:08:05.164Z,2.47
2023-08-08T02:10:32.739Z,2.08
2023-08-08T02:13:00.033Z,2.42
2023-08-08T02:15:27.437Z,2.63
2023-08-08T02:17:54.733Z,2.30
2023-08-08T02:20:22.045Z,2.60
2023-08-08T02:22:49.385Z,1.80
2023-08-08T02:25:16.687Z,3.20
2023-08-08T02:27:44.115Z,2.58
2023-08-08T02:30:12.016Z,2.65
2023-08-08T02:32:39.762Z,2.28
2023-08-08T02:35:07.333Z,2.78
2023-08-08T02:37:34.680Z,2.28
2023-08-08T02:40:02.036Z,2.47
2023-08-08T02:42:29.344Z,2.78
2023-08-08T02:44:56.566Z,2.60
2023-08-08T02:47:24.884Z,2.60
2023-08-08T02:49:52.328Z,2.83
2023-08-08T02:52:19.727Z,2.63
2023-08-08T02:54:46.923Z,2.72
2023-08-08T02:57:14.239Z,2.88
2023-08-08T02:59:41.509Z,2.67
2023-08-08T03:02:08.942Z,2.70
2023-08-08T03:04:36.442Z,2.25
2023-08-08T03:07:05.312Z,2.10
2023-08-08T03:09:32.609Z,2.55
2023-08-08T03:12:00.200Z,1.95
2023-08-08T03:14:27.778Z,2.63
2023-08-08T03:16:55.285Z,2.10
2023-08-08T03:19:22.816Z,3.03
2023-08-08T03:21:50.330Z,2.08
2023-08-08T03:24:17.734Z,2.45
2023-08-08T03:26:45.108Z,2.30
2023-08-08T03:29:14.148Z,2.10
2023-08-08T03:31:41.515Z,2.47
2023-08-08T03:34:08.781Z,2.47
2023-08-08T03:36:36.272Z,1.98
2023-08-08T03:39:05.768Z,1.83
2023-08-08T03:41:35.351Z,1.70
2023-08-08T03:44:04.050Z,2.10
2023-08-08T03:46:33.277Z,2.20
2023-08-08T03:49:00.566Z,2.28
2023-08-08T03:51:28.041Z,1.63
2023-08-08T03:53:55.345Z,2.10
2023-08-08T03:56:22.764Z,2.05
2023-08-08T03:58:50.213Z,2.08
2023-08-08T04:01:17.899Z,2.47
2023-08-08T04:03:45.320Z,1.85
2023-08-08T04:06:12.725Z,1.80
2023-08-08T04:08:40.031Z,1.35
2023-08-08T04:11:07.578Z,1.30
2023-08-08T04:13:35.005Z,1.20
2023-08-08T04:16:02.952Z,1.42
2023-08-08T04:18:30.930Z,1.80
2023-08-08T04:20:58.250Z,1.23
2023-08-08T04:23:27.229Z,1.48
2023-08-08T04:25:54.845Z,1.27
2023-08-08T04:28:22.671Z,1.60
2023-08-08T04:30:49.953Z,2.00
2023-08-08T04:33:17.660Z,1.33
2023-08-08T04:35:44.947Z,1.38
2023-08-08T04:38:12.221Z,1.75
2023-08-08T04:40:40.825Z,1.20
2023-08-08T04:43:08.361Z,1.20
2023-08-08T04:45:35.819Z,1.77
2023-08-08T04:48:03.261Z,1.15
2023-08-08T04:50:30.618Z,0.95
2023-08-08T04:52:59.010Z,1.33
2023-08-08T04:55:26.860Z,1.27
2023-08-08T04:57:54.675Z,2.03
2023-08-08T05:00:22.058Z,1.05
2023-08-08T05:02:49.493Z,1.42
2023-08-08T05:05:16.868Z,1.00
2023-08-08T05:07:44.128Z,1.27
2023-08-08T05:10:11.584Z,1.23
2023-08-08T05:12:39.336Z,1.02
2023-08-08T05:15:07.009Z,0.85
2023-08-08T05:17:34.549Z,1.15
2023-08-08T05:20:01.931Z,0.75
2023-08-08T05:22:29.167Z,0.90
2023-08-08T05:24:56.754Z,1.13
2023-08-08T05:27:24.106Z,0.98
2023-08-08T05:29:51.377Z,0.80
2023-08-08T05:32:18.555Z,0.60
2023-08-08T05:34:45.856Z,0.60
2023-08-08T05:37:17.443Z,0.60
2023-08-08T05:39:45.676Z,0.93
2023-08-08T05:42:13.027Z,0.73
2023-08-08T05:44:45.268Z,1.02
2023-08-08T05:47:12.962Z,0.68
2023-08-08T05:49:44.169Z,0.70
2023-08-08T05:52:11.629Z,0.70
2023-08-08T05:54:39.319Z,0.55
2023-08-08T05:57:06.913Z,0.55
2023-08-08T05:59:34.238Z,0.77
2023-08-08T06:02:02.044Z,0.85
2023-08-08T06:04:29.771Z,0.93
2023-08-08T06:06:58.095Z,0.60
2023-08-08T06:09:25.434Z,0.30
2023-08-08T06:11:52.812Z,0.50
2023-08-08T06:14:20.306Z,0.50
2023-08-08T06:16:47.603Z,0.35
2023-08-08T06:19:16.693Z,0.50
2023-08-08T06:21:44.049Z,0.60
2023-08-08T06:24:11.577Z,0.50
2023-08-08T06:26:38.857Z,0.60
2023-08-08T06:29:06.181Z,0.77
2023-08-08T06:31:33.675Z,0.38
2023-08-08T06:34:04.577Z,0.50
2023-08-08T06:36:31.833Z,0.93
2023-08-08T06:38:59.180Z,0.40
2023-08-08T06:41:26.523Z,0.43
2023-08-08T06:43:54.506Z,0.47
2023-08-08T06:46:21.935Z,0.77
2023-08-08T06:48:49.424Z,0.35
2023-08-08T06:51:17.826Z,0.40
2023-08-08T06:53:45.238Z,0.60
2023-08-08T06:56:12.574Z,0.30
2023-08-08T06:58:39.821Z,0.40
2023-08-08T07:01:07.179Z,0.50
2023-08-08T07:03:34.799Z,0.52
2023-08-08T07:06:02.924Z,0.88
2023-08-08T07:08:30.568Z,0.40
2023-08-08T07:10:58.877Z,0.60
2023-08-08T07:13:26.201Z,0.35
2023-08-08T07:15:53.649Z,0.30
2023-08-08T07:18:22.456Z,0.32
2023-08-08T07:20:50.674Z,0.50
2023-08-08T07:23:18.208Z,0.30
2023-08-08T07:25:45.907Z,0.40
2023-08-08T07:28:13.372Z,0.40
2023-08-08T07:30:40.715Z,0.40
2023-08-08T07:33:11.278Z,0.40
2023-08-08T07:35:38.836Z,0.28
2023-08-08T07:38:06.417Z,0.40
2023-08-08T07:40:33.900Z,0.43
2023-08-08T07:43:01.206Z,0.50
2023-08-08T07:45:28.511Z,0.30
2023-08-08T07:47:56.090Z,0.40
2023-08-08T07:50:24.823Z,0.60
2023-08-08T07:52:52.079Z,0.28
2023-08-08T07:55:19.445Z,0.38
2023-08-08T07:57:47.202Z,0.28
2023-08-08T08:00:14.761Z,0.40
2023-08-08T08:02:44.389Z,0.52
2023-08-08T08:05:12.139Z,0.40
2023-08-08T08:07:39.797Z,0.50
2023-08-08T08:10:08.797Z,0.30
2023-08-08T08:12:36.334Z,0.20
2023-08-08T08:15:04.202Z,0.57
2023-08-08T08:17:31.499Z,0.43
2023-08-08T08:19:58.900Z,0.30
2023-08-08T08:22:26.221Z,0.30
2023-08-08T08:24:53.489Z,0.60
2023-08-08T08:27:20.741Z,0.47
2023-08-08T08:29:48.159Z,0.20
2023-08-08T08:32:15.549Z,0.40
2023-08-08T08:34:43.023Z,0.30
2023-08-08T08:37:10.436Z,0.60
2023-08-08T08:39:37.871Z,0.30
2023-08-08T08:42:06.572Z,0.38
2023-08-08T08:44:33.962Z,0.28
2023-08-08T08:47:05.332Z,0.30
2023-08-08T08:49:33.015Z,0.35
2023-08-08T08:52:06.178Z,0.22
2023-08-08T08:54:34.204Z,0.60
2023-08-08T08:57:01.511Z,0.40
2023-08-08T08:59:28.753Z,0.50
2023-08-08T09:01:56.098Z,0.40
2023-08-08T09:04:24.010Z,0.50
2023-08-08T09:06:52.053Z,0.22
2023-08-08T09:09:23.083Z,0.60
2023-08-08T09:11:51.486Z,0.68
2023-08-08T09:14:26.627Z,0.50
2023-08-08T09:16:54.458Z,0.40
2023-08-08T09:19:22.768Z,0.50
2023-08-08T09:21:50.544Z,0.38
2023-08-08T09:24:18.136Z,0.65
2023-08-08T09:26:46.190Z,0.40
2023-08-08T09:29:16.855Z,0.30
2023-08-08T09:31:44.342Z,0.47
2023-08-08T09:34:11.684Z,0.40
2023-08-08T09:36:38.947Z,0.50
2023-08-08T09:39:06.476Z,0.32
2023-08-08T09:41:34.100Z,0.45
2023-08-08T09:44:02.082Z,0.30
2023-08-08T09:46:31.580Z,0.40
2023-08-08T09:48:59.951Z,0.90
2023-08-08T09:51:28.700Z,0.40
2023-08-08T09:53:57.257Z,0.50
2023-08-08T09:56:28.030Z,0.77
2023-08-08T09:58:55.372Z,0.33
2023-08-08T10:01:22.938Z,0.70
2023-08-08T10:03:53.852Z,0.28
2023-08-08T10:06:21.865Z,0.40
2023-08-08T10:08:49.327Z,0.70
2023-08-08T10:11:16.987Z,0.30
2023-08-08T10:13:50.910Z,0.40
2023-08-08T10:16:21.580Z,0.50
2023-08-08T10:18:57.725Z,0.80
2023-08-08T10:21:26.081Z,0.30
2023-08-08T10:24:07.830Z,0.40
2023-08-08T10:29:03.359Z,0.60
2023-08-08T10:31:36.231Z,0.40
2023-08-08T10:34:05.009Z,0.40
2023-08-08T10:36:45.434Z,0.40
2023-08-08T10:39:13.206Z,0.30
2023-08-08T10:41:46.223Z,0.40
2023-08-08T10:44:13.504Z,0.40
2023-08-08T10:46:43.131Z,0.68
2023-08-08T10:49:10.651Z,0.52
2023-08-08T10:51:43.667Z,0.52
2023-08-08T10:54:14.380Z,0.38
2023-08-08T10:56:42.359Z,0.60
2023-08-08T10:59:17.923Z,0.80
2023-08-08T11:01:47.490Z,0.30
2023-08-08T11:04:15.130Z,0.50
2023-08-08T11:06:42.841Z,0.30
2023-08-08T11:09:11.119Z,0.30
2023-08-08T11:11:42.289Z,0.50
2023-08-08T11:14:17.507Z,0.88
2023-08-08T11:16:45.780Z,0.47
2023-08-08T11:19:13.370Z,0.32
2023-08-08T11:21:47.606Z,0.40
2023-08-08T11:24:15.092Z,0.50
2023-08-08T11:26:45.097Z,0.60
2023-08-08T11:29:12.703Z,0.50
2023-08-08T11:31:40.275Z,0.40
2023-08-08T11:34:07.870Z,0.63
2023-08-08T11:36:35.595Z,0.32
2023-08-08T11:39:09.410Z,0.63
2023-08-08T11:41:37.492Z,0.40
2023-08-08T11:44:10.936Z,0.60
2023-08-08T11:46:45.655Z,0.38
2023-08-08T11:49:15.222Z,0.70
2023-08-08T11:51:44.630Z,0.60
2023-08-08T11:54:12.432Z,0.60
2023-08-08T11:56:42.532Z,0.77
2023-08-08T11:59:15.864Z,0.70
2023-08-08T12:01:45.749Z,0.43
2023-08-08T12:04:25.629Z,0.70
2023-08-08T12:07:02.445Z,0.73
2023-08-08T12:09:39.801Z,0.60
2023-08-08T12:12:09.569Z,0.50
2023-08-08T12:14:50.899Z,0.60
2023-08-08T12:17:19.206Z,1.13
2023-08-08T12:19:48.465Z,0.50
2023-08-08T12:22:16.425Z,0.57
2023-08-08T12:24:43.896Z,0.35
2023-08-08T12:27:11.375Z,0.40
2023-08-08T12:29:38.674Z,0.60
2023-08-08T12:32:11.584Z,0.45
2023-08-08T12:34:39.166Z,0.30
2023-08-08T12:37:08.827Z,0.50
2023-08-08T12:39:36.082Z,0.40
2023-08-08T12:42:03.369Z,0.70
2023-08-08T12:44:30.973Z,0.50
2023-08-08T12:46:58.462Z,0.52
2023-08-08T12:49:26.340Z,0.65
2023-08-08T12:51:56.740Z,0.60
2023-08-08T12:54:24.386Z,0.50
2023-08-08T12:56:51.944Z,0.60
2023-08-08T12:59:19.207Z,0.40
2023-08-08T13:01:46.657Z,0.60
2023-08-08T13:04:19.676Z,0.50
2023-08-08T13:06:48.211Z,0.45
2023-08-08T13:09:16.843Z,0.73
2023-08-08T13:11:44.304Z,0.50
2023-08-08T13:14:11.740Z,0.32
2023-08-08T13:16:39.582Z,0.98
2023-08-08T13:19:09.533Z,0.60
2023-08-08T13:21:37.020Z,0.50
2023-08-08T13:24:05.512Z,0.50
2023-08-08T13:26:32.782Z,0.68
2023-08-08T13:29:03.408Z,0.40
2023-08-08T13:31:30.659Z,0.93
2023-08-08T13:34:00.253Z,0.63
2023-08-08T13:36:27.772Z,0.73
2023-08-08T13:38:55.491Z,0.50
2023-08-08T13:41:23.046Z,0.60
2023-08-08T13:43:50.338Z,0.50
2023-08-08T13:46:17.755Z,0.45
2023-08-08T13:48:45.384Z,0.50
2023-08-08T13:51:12.954Z,0.50
2023-08-08T13:53:43.456Z,0.43
2023-08-08T13:56:14.952Z,0.60
2023-08-08T13:58:42.560Z,0.40
2023-08-08T14:01:10.065Z,0.40
2023-08-08T14:03:37.657Z,0.50
2023-08-08T14:06:05.084Z,0.43
2023-08-08T14:08:32.505Z,0.30
2023-08-08T14:10:59.823Z,0.50
2023-08-08T14:13:27.304Z,0.50
2023-08-08T14:15:54.647Z,0.63
2023-08-08T14:18:24.283Z,0.40
2023-08-08T14:20:51.522Z,0.50
2023-08-08T14:23:21.988Z,0.57
2023-08-08T14:25:49.454Z,0.50
2023-08-08T14:28:16.799Z,0.90
2023-08-08T14:30:44.066Z,0.30
2023-08-08T14:33:11.404Z,0.60
2023-08-08T14:35:38.632Z,0.50
2023-08-08T14:38:06.100Z,0.40
2023-08-08T14:40:35.459Z,0.35
2023-08-08T14:43:11.070Z,0.60
2023-08-08T14:45:39.910Z,0.70
2023-08-08T14:48:07.898Z,0.50
2023-08-08T14:50:35.518Z,0.35
2023-08-08T14:53:03.194Z,0.60
2023-08-08T14:55:30.584Z,0.40
2023-08-08T14:57:58.256Z,0.57
2023-08-08T15:00:25.493Z,0.60
2023-08-08T15:02:52.857Z,0.57
2023-08-08T15:05:20.060Z,0.55
2023-08-08T15:07:47.384Z,0.45
2023-08-08T15:10:14.747Z,0.47
2023-08-08T15:12:42.315Z,0.45
2023-08-08T15:15:10.007Z,0.40
2023-08-08T15:17:37.705Z,0.43
2023-08-08T15:20:05.665Z,0.60
2023-08-08T15:22:32.971Z,0.47
2023-08-08T15:25:00.374Z,0.40
2023-08-08T15:27:30.692Z,0.63
2023-08-08T15:29:58.162Z,0.38
2023-08-08T15:32:25.830Z,0.68
2023-08-08T15:34:53.297Z,0.90
2023-08-08T15:37:20.491Z,0.50
2023-08-08T15:39:47.851Z,0.73
2023-08-08T15:42:15.407Z,0.47
2023-08-08T15:44:42.777Z,0.70
2023-08-08T15:47:10.259Z,0.52
2023-08-08T15:49:38.451Z,1.08
2023-08-08T15:52:06.348Z,0.50
2023-08-08T15:54:33.763Z,0.55
2023-08-08T15:57:03.423Z,0.68
2023-08-08T15:59:32.069Z,0.52
2023-08-08T16:01:59.516Z,0.50
2023-08-08T16:04:26.879Z,0.77
2023-08-08T16:06:54.478Z,0.50
2023-08-08T16:09:21.781Z,0.50
2023-08-08T16:11:49.096Z,0.30
2023-08-08T16:14:18.424Z,0.75
2023-08-08T16:16:47.022Z,0.35
2023-08-08T16:19:14.509Z,0.60
2023-08-08T16:21:42.225Z,0.50
2023-08-08T16:24:09.999Z,0.52
2023-08-08T16:26:37.527Z,0.70
2023-08-08T16:29:05.054Z,0.50
2023-08-08T16:31:33.317Z,0.30
2023-08-08T16:34:02.012Z,0.40
2023-08-08T16:36:29.877Z,0.30
2023-08-08T16:39:05.503Z,0.65
2023-08-08T16:41:44.139Z,0.47
2023-08-08T16:44:11.919Z,0.28
2023-08-08T16:46:39.655Z,0.45
2023-08-08T16:49:08.794Z,0.40
2023-08-08T16:51:36.962Z,0.52
2023-08-08T16:54:04.476Z,0.30
2023-08-08T16:56:31.977Z,0.43
2023-08-08T16:58:59.948Z,0.30
2023-08-08T17:01:27.401Z,0.30
2023-08-08T17:03:54.913Z,0.52
2023-08-08T17:06:22.225Z,0.40
2023-08-08T17:08:49.881Z,0.45
2023-08-08T17:11:18.270Z,0.22
2023-08-08T17:13:48.059Z,0.20
2023-08-08T17:16:17.020Z,0.25
2023-08-08T17:18:44.426Z,0.30
2023-08-08T17:21:12.073Z,0.30
2023-08-08T17:23:39.595Z,0.28
2023-08-08T17:26:07.217Z,0.25
2023-08-08T17:28:34.495Z,0.40
2023-08-08T17:31:02.025Z,0.32
2023-08-08T17:33:29.690Z,0.20
2023-08-08T17:35:57.076Z,0.28
2023-08-08T17:38:24.618Z,0.40
2023-08-08T17:40:51.932Z,0.45
2023-08-08T17:43:19.455Z,0.32
2023-08-08T17:45:46.736Z,0.52
2023-08-08T17:48:14.169Z,0.40
2023-08-08T17:50:41.724Z,0.50
2023-08-08T17:53:09.049Z,0.20
2023-08-08T17:55:36.914Z,0.45
2023-08-08T17:58:04.125Z,0.40
2023-08-08T18:00:31.309Z,0.30
2023-08-08T18:02:58.906Z,0.40
2023-08-08T18:05:30.612Z,0.50
2023-08-08T18:07:58.010Z,0.30
2023-08-08T18:10:25.480Z,0.30
2023-08-08T18:12:52.882Z,0.32
2023-08-08T18:15:20.241Z,0.60
2023-08-08T18:17:47.725Z,0.68
2023-08-08T18:20:15.044Z,0.40
2023-08-08T18:22:42.585Z,0.20
2023-08-08T18:25:11.559Z,0.30
2023-08-08T18:27:39.959Z,0.40
2023-08-08T18:30:07.789Z,0.20
2023-08-08T18:32:35.226Z,0.38
2023-08-08T18:35:03.175Z,0.47
2023-08-08T18:37:30.332Z,0.50
2023-08-08T18:39:58.099Z,0.32
2023-08-08T18:42:25.397Z,0.50
2023-08-08T18:44:52.948Z,0.50
2023-08-08T18:47:20.632Z,0.73
2023-08-08T18:49:48.049Z,1.10
2023-08-08T18:52:15.649Z,0.57
2023-08-08T18:54:42.813Z,0.57
2023-08-08T18:57:10.396Z,0.75
2023-08-08T18:59:39.568Z,0.85
2023-08-08T19:02:07.537Z,0.73
2023-08-08T19:04:35.005Z,0.73
2023-08-08T19:07:03.060Z,0.52
2023-08-08T19:09:31.607Z,0.55
2023-08-08T19:11:59.288Z,0.60
2023-08-08T19:14:27.910Z,0.68
2023-08-08T19:16:55.600Z,1.15
2023-08-08T19:19:22.904Z,1.10
2023-08-08T19:21:50.176Z,1.58
2023-08-08T19:24:17.839Z,1.30
2023-08-08T19:26:45.128Z,1.23
2023-08-08T19:29:12.365Z,1.73
2023-08-08T19:31:39.648Z,1.70
2023-08-08T19:34:07.932Z,3.13
2023-08-08T19:36:36.148Z,1.40
2023-08-08T19:39:03.638Z,1.83
2023-08-08T19:41:31.078Z,1.30
2023-08-08T19:43:58.355Z,0.93
2023-08-08T19:46:25.952Z,1.10
2023-08-08T19:48:53.226Z,1.23
2023-08-08T19:51:20.390Z,1.20
2023-08-08T19:53:49.611Z,1.20
2023-08-08T19:56:17.028Z,1.38
2023-08-08T19:58:44.286Z,1.30
2023-08-08T20:01:11.627Z,1.15
2023-08-08T20:03:42.102Z,1.55
2023-08-08T20:06:09.820Z,1.40
2023-08-08T20:08:36.901Z,1.17
2023-08-08T20:11:06.669Z,0.95
2023-08-08T20:13:34.149Z,0.80
2023-08-08T20:16:01.513Z,1.10
2023-08-08T20:18:28.717Z,1.25
2023-08-08T20:20:55.933Z,1.10
2023-08-08T20:23:23.124Z,1.00
2023-08-08T20:25:50.277Z,1.00
2023-08-08T20:28:17.800Z,1.20
2023-08-08T20:30:45.061Z,1.20
2023-08-08T20:33:12.802Z,1.17
2023-08-08T20:35:41.547Z,1.10
2023-08-08T20:38:08.782Z,1.40
2023-08-08T20:40:35.924Z,1.30
2023-08-08T20:43:03.125Z,1.10
2023-08-08T20:45:30.364Z,1.20
2023-08-08T20:48:00.425Z,1.35
2023-08-08T20:50:27.749Z,1.20
2023-08-08T20:52:54.865Z,1.17
2023-08-08T20:55:22.034Z,1.20
2023-08-08T20:57:49.241Z,1.30
2023-08-08T21:00:16.601Z,1.35
2023-08-08T21:02:43.846Z,1.20
2023-08-08T21:05:11.181Z,1.38
2023-08-08T21:07:38.350Z,1.45
2023-08-08T21:10:05.652Z,2.08
2023-08-08T21:12:32.791Z,1.40
2023-08-08T21:15:01.208Z,1.58
2023-08-08T21:17:29.124Z,1.23
2023-08-08T21:19:57.618Z,1.60
2023-08-08T21:22:24.812Z,1.30
2023-08-08T21:24:51.955Z,1.30
2023-08-08T21:27:19.322Z,1.10
2023-08-08T21:29:46.452Z,1.55
2023-08-08T21:32:13.609Z,1.33
2023-08-08T21:34:40.843Z,1.23
2023-08-08T21:37:07.966Z,1.50
2023-08-08T21:39:35.172Z,1.67
2023-08-08T21:42:02.379Z,1.38
2023-08-08T21:44:29.569Z,1.60
2023-08-08T21:46:56.739Z,2.08
2023-08-08T21:49:23.918Z,1.52
2023-08-08T21:51:51.139Z,1.35
2023-08-08T21:54:18.294Z,1.17
2023-08-08T21:56:46.468Z,1.63
2023-08-08T21:59:13.830Z,1.95
2023-08-08T22:01:41.033Z,1.85
2023-08-08T22:04:08.340Z,1.35
2023-08-08T22:06:35.568Z,1.85
2023-08-08T22:09:02.783Z,1.65
2023-08-08T22:11:29.946Z,1.92
2023-08-08T22:13:57.769Z,2.45
2023-08-08T22:16:26.218Z,1.77
2023-08-08T22:18:53.433Z,1.90
2023-08-08T22:21:20.602Z,2.15
2023-08-08T22:23:47.852Z,1.95
2023-08-08T22:26:15.069Z,1.63
2023-08-08T22:28:42.219Z,2.38
2023-08-08T22:31:09.411Z,2.25
2023-08-08T22:33:36.611Z,1.85
2023-08-08T22:36:03.835Z,2.08
2023-08-08T22:38:30.985Z,2.13
2023-08-08T22:40:58.144Z,2.25
2023-08-08T22:43:25.297Z,2.08
2023-08-08T22:45:52.508Z,1.92
2023-08-08T22:48:19.738Z,1.40
2023-08-08T22:50:46.979Z,1.83
2023-08-08T22:53:14.134Z,1.92
2023-08-08T22:55:41.324Z,1.85
2023-08-08T22:58:08.555Z,1.95
2023-08-08T23:00:36.832Z,1.70
2023-08-08T23:03:06.089Z,2.13
2023-08-08T23:05:33.331Z,2.08
2023-08-08T23:08:00.478Z,2.67
2023-08-08T23:10:27.647Z,2.15
2023-08-08T23:12:54.777Z,2.42
2023-08-08T23:15:21.926Z,2.33
2023-08-08T23:17:49.121Z,2.10
2023-08-08T23:20:16.315Z,2.63
2023-08-08T23:22:43.413Z,2.60
2023-08-08T23:25:10.906Z,2.10
2023-08-08T23:27:38.049Z,2.20
2023-08-08T23:30:05.569Z,1.90
2023-08-08T23:32:32.763Z,2.65
2023-08-08T23:35:00.017Z,2.58
2023-08-08T23:37:28.307Z,2.65
2023-08-08T23:39:55.534Z,2.25
2023-08-08T23:42:22.653Z,2.60
2023-08-08T23:44:49.772Z,2.15
2023-08-08T23:47:16.898Z,3.00
2023-08-08T23:49:44.040Z,2.40
2023-08-08T23:52:11.231Z,2.58
2023-08-08T23:54:38.381Z,2.75
2023-08-08T23:57:05.776Z,2.35
2023-08-08T23:59:32.972Z,2.67
